Worthington, MN

11:02 AM CDT on August 30, 2014 (GMT -0500)
Worthington Municipal | Change Station
CLOSE
Current Station
Airport
Location: Worthington,
Elevation: 1575 ft
Nearby Weather Stations

Elev 1575 ft 43.66 °N, 95.58 °W | Updated 7 minutes ago

Overcast
Overcast
63 °F
Feels Like 63 °F
N
7
Wind Variable Wind from NNW

Today
High -- | Low -- °F
--% Chance of Precip.
Yesterday
High -- | Low -- °F
Precip. -- in
6:43 AM 8:01 PM
Waxing Crescent, 23% visible
Pressure 29.94 in
Visibility 5.0 miles
Clouds Overcast 300 ft
Dew Point 63 °F
Humidity 100%
Rainfall 0.00 in
Snow Depth Not available.
UV 2 out of 12
Pollen 9.00 out of 12
Air Quality Not available.
Flu Activity Not available.
METAR KOTG 301555Z AUTO 34006KT 5SM OVC003 17/17 A2994 RMK AO1

More Conditions Fewer Conditions

Pressure 29.94 in
Visibility 5.0 miles
Clouds Overcast 300 ft
Dew Point 63 °F
Humidity 100%
Rainfall 0.00 in
Snow Depth Not available.
UV 2 out of 12
Pollen 9.00 out of 12
Air Quality Not available.
Flu Activity Not available.
METAR KOTG 301555Z AUTO 34006KT 5SM OVC003 17/17 A2994 RMK AO1

More Conditions Fewer Conditions

10-Day Weather Forecast

Almanac

Astronomy

Aug. 30, 2014 Rise Set
Actual Time 6:43 AM CDT 8:01 PM CDT
Civil Twilight 6:14 AM CDT 8:30 PM CDT
Nautical Twilight 5:38 AM CDT 9:06 PM CDT
Astronomical Twilight 5:00 AM CDT 9:44 PM CDT
Moon 11:42 AM CDT 10:25 PM CDT
Length of Visible Light 14h 16m
Length of Day
13h 17m
Tomorrow will be 2m 51s shorter.
Waxing Crescent, 23% of the Moon is Illuminated
Today
Waxing Crescent
Sep 2
First Quarter
Sep 8
Full
Sep 15
Last Quarter
Sep 24
New

Today's Extremes

State Highs State Lows

Community

WunderPhotos

Upload Photos

1,748,555 photos uploaded!

WunderBlogs® & News

Nearby

Snow Depth

Station Depth Elevation
No new snow has been reported.

Earthquake Activity

City Distance Mag. Time & Date
No recent earthquake activity has been reported nearby.
Minimum magnitude displayed is 2.5.

Coastal Water Temperatures

Place Temperature
No Stations Reporting

Nearby Weather Stations